createdAt,value
2019-03-23T00:00:35.899Z,8.17
2019-03-23T00:03:04.771Z,7.87
2019-03-23T00:05:33.200Z,7.83
2019-03-23T00:08:01.632Z,8.37
2019-03-23T00:10:30.051Z,8.20
2019-03-23T00:12:58.495Z,8.07
2019-03-23T00:15:26.989Z,8.30
2019-03-23T00:17:55.459Z,8.23
2019-03-23T00:20:23.887Z,7.70
2019-03-23T00:22:52.339Z,6.80
2019-03-23T00:25:21.043Z,8.27
2019-03-23T00:27:49.474Z,6.70
2019-03-23T00:30:17.892Z,7.00
2019-03-23T00:32:46.331Z,6.90
2019-03-23T00:35:14.758Z,6.60
2019-03-23T00:37:43.204Z,7.47
2019-03-23T00:40:11.761Z,7.20
2019-03-23T00:42:40.200Z,7.20
2019-03-23T00:45:09.556Z,7.13
2019-03-23T00:47:38.012Z,7.50
2019-03-23T00:50:08.177Z,8.67
2019-03-23T00:52:36.653Z,7.77
2019-03-23T00:55:07.012Z,7.03
2019-03-23T00:57:35.449Z,6.73
2019-03-23T01:00:09.565Z,7.00
2019-03-23T01:02:38.010Z,8.00
2019-03-23T01:05:07.891Z,6.13
2019-03-23T01:07:36.331Z,7.40
2019-03-23T01:10:07.487Z,6.77
2019-03-23T01:12:36.069Z,7.67
2019-03-23T01:15:07.523Z,6.57
2019-03-23T01:17:36.087Z,7.30
2019-03-23T01:20:07.270Z,6.10
2019-03-23T01:22:35.704Z,7.07
2019-03-23T01:25:07.963Z,7.30
2019-03-23T01:27:36.412Z,7.53
2019-03-23T01:30:10.574Z,6.83
2019-03-23T01:32:39.019Z,7.20
2019-03-23T01:35:08.284Z,7.37
2019-03-23T01:37:36.736Z,7.03
2019-03-23T01:40:06.590Z,6.70
2019-03-23T01:42:35.026Z,6.90
2019-03-23T01:45:04.532Z,7.30
2019-03-23T01:47:33.002Z,7.20
2019-03-23T01:50:01.432Z,7.60
2019-03-23T01:52:29.852Z,6.70
2019-03-23T01:54:58.294Z,6.80
2019-03-23T01:57:26.726Z,6.03
2019-03-23T01:59:55.162Z,7.20
2019-03-23T02:02:23.587Z,6.87
2019-03-23T02:04:52.035Z,6.30
2019-03-23T02:07:20.467Z,6.23
2019-03-23T02:09:48.907Z,7.23
2019-03-23T02:12:17.343Z,7.30
2019-03-23T02:14:45.873Z,7.00
2019-03-23T02:17:14.297Z,6.10
2019-03-23T02:19:42.741Z,6.43
2019-03-23T02:22:11.176Z,5.90
2019-03-23T02:24:39.619Z,7.07
2019-03-23T02:27:08.034Z,6.80
2019-03-23T02:29:36.476Z,6.57
2019-03-23T02:32:04.964Z,6.00
2019-03-23T02:34:33.405Z,7.73
2019-03-23T02:37:01.829Z,6.43
2019-03-23T02:42:32.187Z,6.20
2019-03-23T02:45:00.766Z,6.57
2019-03-23T02:47:29.209Z,6.37
2019-03-23T02:49:57.656Z,7.37
2019-03-23T02:52:26.089Z,7.93
2019-03-23T02:54:54.511Z,6.87
2019-03-23T02:57:23.040Z,7.20
2019-03-23T02:59:51.570Z,7.47
2019-03-23T03:02:20.188Z,6.40
2019-03-23T03:04:48.655Z,6.87
2019-03-23T03:07:17.084Z,7.67
2019-03-23T03:09:45.526Z,7.37
2019-03-23T03:12:13.975Z,6.33
2019-03-23T03:14:42.428Z,7.33
2019-03-23T03:17:10.851Z,6.47
2019-03-23T03:19:39.286Z,7.37
2019-03-23T03:22:07.778Z,7.43
2019-03-23T03:24:36.236Z,7.10
2019-03-23T03:27:04.729Z,7.13
2019-03-23T03:29:33.164Z,6.93
2019-03-23T03:32:01.688Z,6.80
2019-03-23T03:34:30.132Z,6.80
2019-03-23T03:36:58.573Z,7.10
2019-03-23T03:39:27.031Z,9.07
2019-03-23T03:41:55.468Z,7.20
2019-03-23T03:44:23.902Z,6.97
2019-03-23T03:46:52.358Z,6.97
2019-03-23T03:49:20.806Z,6.83
2019-03-23T03:51:49.227Z,7.37
2019-03-23T03:54:17.668Z,8.07
2019-03-23T03:56:46.092Z,6.60
2019-03-23T03:59:14.568Z,6.30
2019-03-23T04:01:43.132Z,7.13
2019-03-23T04:04:11.612Z,7.63
2019-03-23T04:06:40.042Z,8.30
2019-03-23T04:09:08.476Z,8.07
2019-03-23T04:11:36.910Z,7.30
2019-03-23T04:14:05.343Z,7.23
2019-03-23T04:16:33.774Z,7.30
2019-03-23T04:19:02.320Z,6.20
2019-03-23T04:21:30.793Z,7.27
2019-03-23T04:23:59.324Z,7.60
2019-03-23T04:26:27.774Z,7.37
2019-03-23T04:28:56.207Z,7.00
2019-03-23T04:31:24.640Z,7.03
2019-03-23T04:33:53.098Z,7.30
2019-03-23T04:36:21.513Z,7.40
2019-03-23T04:38:49.952Z,7.43
2019-03-23T04:41:18.421Z,6.40
2019-03-23T04:43:46.881Z,6.40
2019-03-23T04:46:15.305Z,7.23
2019-03-23T04:48:43.805Z,6.87
2019-03-23T04:51:12.293Z,6.80
2019-03-23T04:53:40.780Z,7.73
2019-03-23T04:56:09.519Z,7.33
2019-03-23T04:58:38.249Z,7.97
2019-03-23T05:01:06.776Z,7.87
2019-03-23T05:03:35.420Z,21.10
2019-03-23T05:06:04.076Z,16.07
2019-03-23T05:08:33.635Z,15.20
2019-03-23T05:11:02.402Z,15.80
2019-03-23T05:13:31.080Z,12.40
2019-03-23T05:15:59.690Z,12.90
2019-03-23T05:18:28.309Z,10.80
2019-03-23T05:20:56.907Z,7.67
2019-03-23T05:23:25.498Z,8.23
2019-03-23T05:25:54.105Z,7.17
2019-03-23T05:28:22.660Z,7.57
2019-03-23T05:30:51.324Z,6.50
2019-03-23T05:33:19.923Z,6.93
2019-03-23T05:35:48.527Z,6.17
2019-03-23T05:38:17.179Z,7.30
2019-03-23T05:40:45.967Z,6.47
2019-03-23T05:43:14.557Z,6.60
2019-03-23T05:45:43.135Z,7.40
2019-03-23T05:48:11.692Z,6.97
2019-03-23T05:50:40.313Z,8.03
2019-03-23T05:53:08.921Z,6.80
2019-03-23T05:55:37.546Z,8.10
2019-03-23T05:58:06.091Z,6.97
2019-03-23T06:00:34.617Z,7.23
2019-03-23T06:03:03.176Z,6.77
2019-03-23T06:05:31.833Z,6.97
2019-03-23T06:08:00.575Z,7.40
2019-03-23T06:10:29.232Z,6.47
2019-03-23T06:12:57.735Z,7.17
2019-03-23T06:15:26.262Z,6.47
2019-03-23T06:17:54.895Z,6.43
2019-03-23T06:20:23.435Z,6.10
2019-03-23T06:22:52.042Z,6.40
2019-03-23T06:25:20.647Z,6.80
2019-03-23T06:27:49.238Z,6.93
2019-03-23T06:30:17.877Z,6.20
2019-03-23T06:32:46.558Z,7.30
2019-03-23T06:35:15.054Z,7.20
2019-03-23T06:37:43.531Z,6.93
2019-03-23T06:40:12.185Z,7.80
2019-03-23T06:42:40.757Z,6.50
2019-03-23T06:45:10.975Z,7.70
2019-03-23T06:47:39.666Z,7.33
2019-03-23T06:50:10.289Z,7.80
2019-03-23T06:52:38.811Z,6.70
2019-03-23T06:55:09.025Z,7.33
2019-03-23T06:57:37.552Z,7.00
2019-03-23T07:00:09.413Z,7.27
2019-03-23T07:02:37.974Z,7.73
2019-03-23T07:05:08.331Z,8.30
2019-03-23T07:07:36.970Z,8.60
2019-03-23T07:10:08.289Z,8.10
2019-03-23T07:12:36.967Z,8.70
2019-03-23T07:15:19.428Z,9.50
2019-03-23T07:17:40.459Z,8.80
2019-03-23T07:20:11.618Z,9.70
2019-03-23T07:22:40.222Z,10.30
2019-03-23T07:25:10.572Z,9.10
2019-03-23T07:27:39.126Z,10.50
2019-03-23T07:30:13.469Z,10.43
2019-03-23T07:32:42.032Z,12.27
2019-03-23T07:35:10.947Z,10.87
2019-03-23T07:37:39.576Z,10.13
2019-03-23T07:40:09.684Z,10.77
2019-03-23T07:42:38.254Z,10.70
2019-03-23T07:45:09.433Z,9.20
2019-03-23T07:47:38.137Z,9.50
2019-03-23T07:50:08.696Z,9.70
2019-03-23T07:52:37.291Z,9.23
2019-03-23T07:55:25.050Z,9.90
2019-03-23T07:58:12.823Z,9.00
2019-03-23T08:00:41.299Z,9.37
2019-03-23T08:03:29.222Z,9.40
2019-03-23T08:05:57.763Z,9.10
2019-03-23T08:08:26.275Z,8.13
2019-03-23T08:10:55.200Z,8.43
2019-03-23T08:13:23.704Z,9.47
2019-03-23T08:15:52.213Z,9.17
2019-03-23T08:18:20.857Z,9.50
2019-03-23T08:20:49.404Z,8.93
2019-03-23T08:23:17.967Z,10.40
2019-03-23T08:25:46.529Z,9.20
2019-03-23T08:28:15.093Z,10.00
2019-03-23T08:30:43.633Z,10.40
2019-03-23T08:33:12.126Z,10.60
2019-03-23T08:35:40.616Z,10.50
2019-03-23T08:38:09.116Z,9.70
2019-03-23T08:40:37.578Z,9.00
2019-03-23T08:43:06.203Z,11.53
2019-03-23T08:45:34.676Z,11.30
2019-03-23T08:48:03.191Z,10.53
2019-03-23T08:50:31.734Z,10.60
2019-03-23T08:53:00.261Z,12.23
2019-03-23T08:55:28.919Z,10.33
2019-03-23T08:57:57.485Z,12.20
2019-03-23T09:00:26.019Z,11.03
2019-03-23T09:02:54.661Z,11.20
2019-03-23T09:05:23.142Z,10.97
2019-03-23T09:07:52.689Z,11.47
2019-03-23T09:10:21.392Z,13.43
2019-03-23T09:12:49.925Z,12.90
2019-03-23T09:15:18.398Z,11.80
2019-03-23T09:17:46.992Z,12.50
2019-03-23T09:20:15.662Z,12.67
2019-03-23T09:22:44.157Z,12.70
2019-03-23T09:25:12.711Z,13.73
2019-03-23T09:27:41.517Z,12.27
2019-03-23T09:30:12.140Z,13.10
2019-03-23T09:32:40.914Z,13.73
2019-03-23T09:35:09.544Z,14.53
2019-03-23T09:37:38.475Z,12.60
2019-03-23T09:40:11.046Z,13.93
2019-03-23T09:42:37.777Z,14.73
2019-03-23T09:45:08.232Z,14.63
2019-03-23T09:47:37.076Z,14.97
2019-03-23T09:50:08.480Z,13.90
2019-03-23T09:52:36.972Z,15.50
2019-03-23T09:55:07.983Z,16.93
2019-03-23T09:57:36.524Z,15.43
2019-03-23T10:00:07.475Z,14.70
2019-03-23T10:02:36.030Z,14.43
2019-03-23T10:05:06.832Z,14.90
2019-03-23T10:07:35.294Z,13.87
2019-03-23T10:10:04.493Z,17.13
2019-03-23T10:12:33.146Z,15.70
2019-03-23T10:15:01.720Z,15.80
2019-03-23T10:17:30.352Z,15.10
2019-03-23T10:19:58.935Z,16.17
2019-03-23T10:22:27.420Z,15.47
2019-03-23T10:24:55.996Z,16.67
2019-03-23T10:27:24.499Z,17.00
2019-03-23T10:29:53.052Z,14.77
2019-03-23T10:32:21.557Z,17.77
2019-03-23T10:34:50.144Z,17.13
2019-03-23T10:37:18.670Z,17.10
2019-03-23T10:39:47.112Z,17.50
2019-03-23T10:42:16.378Z,17.50
2019-03-23T10:44:45.073Z,17.90
2019-03-23T10:47:32.949Z,17.67
2019-03-23T10:50:20.751Z,17.53
2019-03-23T10:53:08.530Z,18.60
2019-03-23T10:55:56.315Z,17.00
2019-03-23T10:58:44.105Z,18.60
2019-03-23T11:01:31.899Z,18.33
2019-03-23T11:04:19.675Z,15.93
2019-03-23T11:07:07.451Z,18.43
2019-03-23T11:09:55.243Z,17.50
2019-03-23T11:12:43.015Z,17.77
2019-03-23T11:15:23.872Z,18.70
2019-03-23T11:18:04.639Z,17.77
2019-03-23T11:20:45.268Z,17.20
2019-03-23T11:23:26.027Z,16.50
2019-03-23T11:26:06.952Z,17.67
2019-03-23T11:28:47.626Z,17.77
2019-03-23T11:31:28.546Z,18.00
2019-03-23T11:34:17.567Z,19.20
2019-03-23T11:36:52.211Z,19.80
2019-03-23T11:39:33.059Z,16.50
2019-03-23T11:42:13.790Z,19.37
2019-03-23T11:44:54.789Z,18.20
2019-03-23T11:47:35.547Z,17.80
2019-03-23T11:50:16.431Z,17.10
2019-03-23T11:52:57.098Z,19.30
2019-03-23T11:55:38.149Z,17.57
2019-03-23T11:58:17.024Z,20.03
2019-03-23T12:01:04.847Z,17.90
2019-03-23T12:03:52.614Z,20.00
2019-03-23T12:06:40.417Z,17.67
2019-03-23T12:09:28.172Z,17.23
2019-03-23T12:12:15.971Z,18.73
2019-03-23T12:14:56.591Z,21.77
2019-03-23T12:17:37.342Z,20.63
2019-03-23T12:20:18.421Z,19.93
2019-03-23T12:22:59.074Z,17.00
2019-03-23T12:25:39.676Z,21.67
2019-03-23T12:28:20.608Z,17.40
2019-03-23T12:31:00.944Z,17.87
2019-03-23T12:33:41.872Z,16.40
2019-03-23T12:36:22.446Z,16.60
2019-03-23T12:39:04.540Z,17.10
2019-03-23T12:41:45.103Z,17.20
2019-03-23T12:44:26.011Z,20.07
2019-03-23T12:47:06.979Z,20.57
2019-03-23T12:49:48.093Z,19.77
2019-03-23T12:52:28.890Z,17.03
2019-03-23T12:55:09.719Z,16.17
2019-03-23T12:57:50.672Z,17.00
2019-03-23T13:00:31.756Z,17.47
2019-03-23T13:03:12.389Z,16.40
2019-03-23T13:05:53.171Z,16.17
2019-03-23T13:08:21.610Z,17.50
2019-03-23T13:11:09.397Z,15.20
2019-03-23T13:13:57.166Z,16.97
2019-03-23T13:16:45.004Z,17.63
2019-03-23T13:19:32.790Z,16.20
2019-03-23T13:22:20.562Z,17.13
2019-03-23T13:25:08.826Z,18.10
2019-03-23T13:27:56.604Z,17.67
2019-03-23T13:30:44.381Z,16.10
2019-03-23T13:33:32.180Z,17.80
2019-03-23T13:36:19.978Z,18.97
2019-03-23T13:38:48.426Z,18.30
2019-03-23T13:41:56.948Z,18.33
2019-03-23T13:44:44.807Z,17.30
2019-03-23T13:47:32.644Z,17.33
2019-03-23T13:50:41.141Z,17.47
2019-03-23T13:53:28.919Z,18.13
2019-03-23T13:56:16.760Z,16.77
2019-03-23T13:59:04.568Z,18.73
2019-03-23T14:01:52.359Z,17.23
2019-03-23T14:04:40.131Z,18.87
2019-03-23T14:07:27.934Z,16.50
2019-03-23T14:10:15.704Z,18.43
2019-03-23T14:13:03.485Z,17.87
2019-03-23T14:15:44.277Z,17.80
2019-03-23T14:18:24.956Z,19.10
2019-03-23T14:21:05.649Z,18.47
2019-03-23T14:23:46.660Z,19.23
2019-03-23T14:26:15.087Z,18.60
2019-03-23T14:29:02.868Z,18.93
2019-03-23T14:31:50.660Z,18.57
2019-03-23T14:34:38.428Z,18.10
2019-03-23T14:37:26.255Z,18.67
2019-03-23T14:40:14.230Z,18.13
2019-03-23T14:43:02.029Z,17.80
2019-03-23T14:45:49.815Z,20.63
2019-03-23T14:48:37.598Z,18.83
2019-03-23T14:51:25.368Z,17.53
2019-03-23T14:54:13.152Z,17.20
2019-03-23T14:57:00.918Z,20.93
2019-03-23T14:59:48.695Z,20.00
2019-03-23T15:02:36.555Z,21.30
2019-03-23T15:05:24.319Z,20.63
2019-03-23T15:08:12.121Z,19.23
2019-03-23T15:10:59.892Z,19.60
2019-03-23T15:13:47.705Z,21.00
2019-03-23T15:16:26.518Z,20.30
2019-03-23T15:19:15.632Z,19.87
2019-03-23T15:22:03.853Z,17.80
2019-03-23T15:24:51.647Z,18.77
2019-03-23T15:27:20.081Z,18.50
2019-03-23T15:30:07.951Z,19.50
2019-03-23T15:32:55.738Z,19.20
2019-03-23T15:35:24.177Z,16.43
2019-03-23T15:40:59.369Z,19.37
2019-03-23T15:43:28.953Z,18.23
2019-03-23T15:45:57.437Z,18.67
2019-03-23T15:48:26.203Z,18.63
2019-03-23T15:50:54.792Z,18.03
2019-03-23T15:53:23.484Z,17.13
2019-03-23T15:55:52.242Z,18.53
2019-03-23T15:58:20.717Z,17.00
2019-03-23T16:00:49.350Z,16.93
2019-03-23T16:03:17.883Z,17.73
2019-03-23T16:05:46.560Z,17.80
2019-03-23T16:08:15.063Z,19.03
2019-03-23T16:10:43.726Z,17.43
2019-03-23T16:13:12.370Z,16.50
2019-03-23T16:15:40.991Z,17.00
2019-03-23T16:18:09.601Z,16.43
2019-03-23T16:20:38.158Z,16.87
2019-03-23T16:23:07.825Z,16.57
2019-03-23T16:25:36.564Z,17.67
2019-03-23T16:28:05.153Z,16.90
2019-03-23T16:30:34.075Z,16.40
2019-03-23T16:33:02.689Z,18.37
2019-03-23T16:35:31.390Z,17.50
2019-03-23T16:37:59.998Z,18.33
2019-03-23T16:40:28.626Z,17.10
2019-03-23T16:42:57.251Z,19.70
2019-03-23T16:45:25.876Z,16.93
2019-03-23T16:47:54.414Z,16.60
2019-03-23T16:50:23.094Z,19.83
2019-03-23T16:52:51.816Z,19.83
2019-03-23T16:55:20.575Z,19.50
2019-03-23T16:57:49.255Z,20.27
2019-03-23T17:00:20.842Z,20.33
2019-03-23T17:02:49.496Z,19.90
2019-03-23T17:05:18.103Z,20.30
2019-03-23T17:07:46.885Z,19.97
2019-03-23T17:10:15.852Z,20.90
2019-03-23T17:12:54.822Z,20.43
2019-03-23T17:15:15.077Z,19.47
2019-03-23T17:17:43.705Z,21.13
2019-03-23T17:20:14.978Z,22.53
2019-03-23T17:22:43.254Z,20.20
2019-03-23T17:25:12.086Z,19.33
2019-03-23T17:27:40.864Z,19.50
2019-03-23T17:30:10.168Z,17.77
2019-03-23T17:32:39.066Z,16.93
2019-03-23T17:35:08.587Z,17.50
2019-03-23T17:37:37.339Z,19.70
2019-03-23T17:40:07.547Z,20.80
2019-03-23T17:42:36.401Z,22.50
2019-03-23T17:45:09.140Z,19.50
2019-03-23T17:47:37.799Z,17.33
2019-03-23T17:50:06.639Z,18.00
2019-03-23T17:52:35.226Z,18.70
2019-03-23T17:55:05.849Z,18.60
2019-03-23T17:57:34.507Z,19.07
2019-03-23T18:00:05.406Z,18.47
2019-03-23T18:02:33.964Z,21.20
2019-03-23T18:05:02.603Z,20.30
2019-03-23T18:07:31.183Z,17.50
2019-03-23T18:09:59.702Z,17.37
2019-03-23T18:12:28.256Z,19.50
2019-03-23T18:14:56.889Z,16.30
2019-03-23T18:17:25.503Z,15.70
2019-03-23T18:19:54.073Z,16.77
2019-03-23T18:22:22.734Z,17.40
2019-03-23T18:24:51.387Z,15.70
2019-03-23T18:27:20.076Z,17.30
2019-03-23T18:29:48.575Z,17.27
2019-03-23T18:32:17.211Z,19.03
2019-03-23T18:34:45.678Z,20.30
2019-03-23T18:37:14.340Z,21.07
2019-03-23T18:39:42.940Z,17.53
2019-03-23T18:42:11.628Z,19.37
2019-03-23T18:44:40.268Z,19.93
2019-03-23T18:47:08.860Z,22.90
2019-03-23T18:49:37.473Z,20.20
2019-03-23T18:52:06.207Z,23.20
2019-03-23T18:54:34.839Z,23.10
2019-03-23T18:57:03.457Z,25.10
2019-03-23T18:59:32.065Z,28.10
2019-03-23T19:02:00.653Z,24.70
2019-03-23T19:04:29.285Z,27.30
2019-03-23T19:06:57.863Z,23.77
2019-03-23T19:09:26.412Z,28.97
2019-03-23T19:11:54.959Z,28.63
2019-03-23T19:14:23.595Z,28.00
2019-03-23T19:16:52.104Z,31.80
2019-03-23T19:19:20.535Z,29.43
2019-03-23T19:21:49.078Z,30.20
2019-03-23T19:24:17.576Z,30.90
2019-03-23T19:26:47.093Z,32.17
2019-03-23T19:29:17.561Z,29.37
2019-03-23T19:31:47.069Z,30.53
2019-03-23T19:34:15.545Z,31.47
2019-03-23T19:36:44.323Z,29.73
2019-03-23T19:39:12.848Z,29.10
2019-03-23T19:41:41.314Z,31.43
2019-03-23T19:44:09.865Z,32.93
2019-03-23T19:46:38.399Z,31.00
2019-03-23T19:49:06.846Z,29.30
2019-03-23T19:51:35.340Z,31.10
2019-03-23T19:54:03.915Z,31.30
2019-03-23T19:56:32.356Z,33.33
2019-03-23T19:59:00.886Z,32.00
2019-03-23T20:01:29.418Z,34.27
2019-03-23T20:03:58.018Z,36.20
2019-03-23T20:06:26.462Z,33.53
2019-03-23T20:08:54.934Z,40.47
2019-03-23T20:11:23.538Z,41.43
2019-03-23T20:13:58.686Z,43.60
2019-03-23T20:16:22.344Z,40.47
2019-03-23T20:18:50.936Z,48.20
2019-03-23T20:21:19.484Z,44.53
2019-03-23T20:23:48.032Z,44.60
2019-03-23T20:26:16.532Z,41.40
2019-03-23T20:28:45.096Z,44.17
2019-03-23T20:31:13.658Z,42.10
2019-03-23T20:33:42.329Z,42.50
2019-03-23T20:36:10.915Z,40.00
2019-03-23T20:38:39.459Z,39.43
2019-03-23T20:41:07.968Z,43.77
2019-03-23T20:43:36.446Z,41.60
2019-03-23T20:46:05.924Z,40.67
2019-03-23T20:48:36.546Z,41.13
2019-03-23T20:51:05.339Z,42.10
2019-03-23T20:53:33.918Z,40.97
2019-03-23T20:56:02.533Z,37.63
2019-03-23T20:58:31.203Z,40.00
2019-03-23T21:00:59.815Z,37.67
2019-03-23T21:03:28.427Z,38.70
2019-03-23T21:05:56.982Z,38.93
2019-03-23T21:08:25.694Z,38.23
2019-03-23T21:10:54.406Z,37.00
2019-03-23T21:13:23.032Z,39.40
2019-03-23T21:15:51.666Z,38.50
2019-03-23T21:18:20.289Z,36.97
2019-03-23T21:20:48.881Z,38.83
2019-03-23T21:23:17.530Z,36.20
2019-03-23T21:25:46.246Z,36.27
2019-03-23T21:28:14.927Z,37.77
2019-03-23T21:30:43.561Z,37.03
2019-03-23T21:33:12.110Z,41.50
2019-03-23T21:35:40.844Z,40.90
2019-03-23T21:38:09.359Z,37.50
2019-03-23T21:40:37.821Z,38.80
2019-03-23T21:43:06.375Z,38.07
2019-03-23T21:45:40.673Z,38.90
2019-03-23T21:48:09.179Z,37.30
2019-03-23T21:50:47.081Z,37.87
2019-03-23T21:53:07.856Z,36.70
2019-03-23T21:55:36.409Z,37.47
2019-03-23T21:58:04.937Z,33.93
2019-03-23T22:00:34.834Z,35.63
2019-03-23T22:03:03.516Z,35.70
2019-03-23T22:05:32.174Z,34.10
2019-03-23T22:08:00.711Z,34.13
2019-03-23T22:10:30.372Z,36.87
2019-03-23T22:12:59.978Z,33.90
2019-03-23T22:15:30.329Z,33.70
2019-03-23T22:17:59.340Z,34.37
2019-03-23T22:20:27.999Z,34.40
2019-03-23T22:22:56.609Z,36.97
2019-03-23T22:25:25.201Z,36.30
2019-03-23T22:27:53.801Z,35.27
2019-03-23T22:30:22.647Z,35.37
2019-03-23T22:32:51.812Z,36.97
2019-03-23T22:35:20.355Z,34.40
2019-03-23T22:37:48.943Z,36.37
2019-03-23T22:40:17.714Z,35.90
2019-03-23T22:42:46.159Z,35.50
2019-03-23T22:45:14.683Z,34.13
2019-03-23T22:47:43.198Z,33.87
2019-03-23T22:50:13.682Z,32.47
2019-03-23T22:52:42.148Z,33.57
2019-03-23T22:55:10.812Z,33.87
2019-03-23T22:57:39.340Z,33.50
2019-03-23T23:00:11.924Z,34.40
2019-03-23T23:02:40.484Z,35.80
2019-03-23T23:05:09.726Z,32.73
2019-03-23T23:07:38.195Z,33.33
2019-03-23T23:10:07.333Z,34.93
2019-03-23T23:12:35.790Z,32.73
2019-03-23T23:15:06.292Z,32.77
2019-03-23T23:17:34.729Z,33.33
2019-03-23T23:20:05.238Z,34.93
2019-03-23T23:22:33.827Z,33.67
2019-03-23T23:25:02.652Z,35.30
2019-03-23T23:27:31.101Z,32.60
2019-03-23T23:29:59.539Z,31.87
2019-03-23T23:32:28.102Z,34.00
2019-03-23T23:34:56.582Z,34.97
2019-03-23T23:37:25.127Z,34.30
2019-03-23T23:39:53.634Z,33.40
2019-03-23T23:42:22.163Z,34.03
2019-03-23T23:44:50.622Z,32.70
2019-03-23T23:47:19.081Z,33.90
2019-03-23T23:49:47.553Z,33.07
2019-03-23T23:52:16.045Z,30.40
2019-03-23T23:54:44.595Z,32.47
2019-03-23T23:57:13.074Z,33.43
2019-03-23T23:59:41.530Z,32.57
